Time;durP1;ratioP1;P1;durP2;ratioP2;P2;SDS_P1;SDS_P2;PMS_P1;PMS_P2;Temp;Humidity;BMP_temperature;BMP_pressure;BME280_temperature;BME280_humidity;BME280_pressure;Samples;Min_cycle;Max_cycle;Signal;HPM_P1;HPM_P2
2022/11/10 00:02:18;;;;;;;29.27;20.20;;;;;;;12.79;67.82;100286.41;4921113;28;97313;-85
2022/11/10 00:05:02;;;;;;;29.83;20.52;;;;;;;12.80;68.35;100291.63;4944123;28;97227;-84
2022/11/10 00:07:47;;;;;;;31.63;20.98;;;;;;;12.81;68.42;100298.59;4923414;28;96976;-85
2022/11/10 00:10:31;;;;;;;30.02;20.95;;;;;;;12.75;68.77;100287.47;4919730;28;96867;-86
2022/11/10 00:13:15;;;;;;;28.15;20.60;;;;;;;12.76;68.58;100294.44;4901283;28;97149;-84
2022/11/10 00:19:04;;;;;;;28.60;20.17;;;;;;;12.66;69.44;100292.22;4931662;28;97085;-84
2022/11/10 00:21:48;;;;;;;33.40;21.20;;;;;;;12.77;69.66;100309.31;4934113;28;97723;-85
2022/11/10 00:24:32;;;;;;;31.52;20.60;;;;;;;12.76;69.25;100299.72;4935015;28;96845;-85
2022/11/10 00:27:16;;;;;;;37.08;23.88;;;;;;;12.75;69.90;100316.44;4921167;28;97190;-85
2022/11/10 00:30:00;;;;;;;31.13;21.17;;;;;;;12.77;69.50;100317.22;4914933;28;97173;-85
2022/11/10 00:32:46;;;;;;;29.77;20.35;;;;;;;12.76;69.58;100311.09;4912497;28;98092;-84
2022/11/10 00:35:30;;;;;;;33.90;22.15;;;;;;;12.77;69.63;100317.22;4919811;28;97071;-84
2022/11/10 00:38:14;;;;;;;30.88;20.95;;;;;;;12.76;69.50;100312.88;4918270;28;97585;-86
2022/11/10 00:40:59;;;;;;;28.88;20.27;;;;;;;12.76;70.07;100319.00;4931273;28;97311;-85
2022/11/10 00:43:43;;;;;;;31.40;21.60;;;;;;;12.71;69.82;100318.34;4922585;28;97398;-85
2022/11/10 00:46:27;;;;;;;28.33;20.73;;;;;;;12.68;69.89;100324.63;4928106;28;97281;-85
2022/11/10 00:49:11;;;;;;;28.42;21.25;;;;;;;12.72;70.27;100329.75;4919579;28;97217;-85
2022/11/10 00:51:55;;;;;;;30.15;21.48;;;;;;;12.70;70.44;100337.69;4915044;28;97296;-85
2022/11/10 00:54:39;;;;;;;32.28;22.25;;;;;;;12.70;69.89;100337.69;4917528;28;96938;-85
2022/11/10 00:57:23;;;;;;;25.75;19.42;;;;;;;12.71;69.97;100336.78;4933877;28;98026;-85
2022/11/10 01:00:08;;;;;;;27.80;20.50;;;;;;;12.70;70.37;100335.06;4915492;28;97036;-85
2022/11/10 01:02:52;;;;;;;29.70;20.75;;;;;;;12.68;70.39;100332.50;4920387;28;97095;-84
2022/11/10 01:05:36;;;;;;;27.58;20.20;;;;;;;12.66;70.49;100336.13;4936204;28;96802;-84
2022/11/10 01:08:20;;;;;;;32.25;20.52;;;;;;;12.66;70.42;100336.97;4920403;28;97608;-85
2022/11/10 01:11:11;;;;;;;28.02;19.98;;;;;;;12.65;70.71;100339.66;4918409;28;97804;-85
2022/11/10 01:13:56;;;;;;;26.35;20.25;;;;;;;12.68;70.34;100342.16;4913388;28;98008;-83
2022/11/10 01:16:40;;;;;;;25.85;19.20;;;;;;;12.54;70.44;100332.25;4907331;28;97841;-85
2022/11/10 01:19:24;;;;;;;27.60;20.13;;;;;;;12.65;70.29;100350.19;4917847;28;97296;-85
2022/11/10 01:22:08;;;;;;;29.77;19.70;;;;;;;12.60;70.39;100341.66;4928269;28;97179;-85
2022/11/10 01:24:52;;;;;;;28.80;19.80;;;;;;;12.60;70.70;100349.56;4910811;28;97096;-85
2022/11/10 01:27:36;;;;;;;25.85;18.83;;;;;;;12.61;70.43;100349.47;4917736;28;96866;-85
2022/11/10 01:30:20;;;;;;;26.95;18.52;;;;;;;12.54;70.77;100328.75;4919628;28;97488;-85
2022/11/10 01:33:03;;;;;;;27.42;19.08;;;;;;;12.61;70.44;100344.22;4949203;28;98198;-85
2022/11/10 01:35:47;;;;;;;24.70;18.30;;;;;;;12.60;70.64;100346.94;4920472;28;97460;-85
2022/11/10 01:38:34;;;;;;;27.58;19.05;;;;;;;12.56;70.30;100340.91;4934637;28;97890;-85
2022/11/10 01:41:18;;;;;;;26.88;20.27;;;;;;;12.58;70.55;100343.50;4914530;28;96983;-85
2022/11/10 01:44:20;;;;;;;25.70;18.52;;;;;;;12.58;70.34;100352.25;4918425;28;98424;-86
2022/11/10 01:47:04;;;;;;;;;;;;;;;12.59;70.38;100347.81;4929673;28;97321;-86
2022/11/10 01:49:48;;;;;;;23.67;18.02;;;;;;;12.58;70.30;100354.88;4932542;28;96900;-86
2022/11/10 01:52:32;;;;;;;25.42;18.15;;;;;;;12.57;70.77;100361.06;4920337;28;98075;-85
2022/11/10 01:55:17;;;;;;;25.02;18.77;;;;;;;12.58;70.48;100354.03;4932657;28;97216;-85
2022/11/10 01:58:01;;;;;;;24.95;17.85;;;;;;;12.63;70.46;100359.97;4942168;28;96814;-85
2022/11/10 02:00:45;;;;;;;24.58;18.70;;;;;;;12.58;70.43;100354.88;4929947;28;96755;-85
2022/11/10 02:03:58;;;;;;;24.83;18.63;;;;;;;12.64;70.83;100366.94;4935922;28;96964;-85
2022/11/10 02:06:44;;;;;;;22.77;17.35;;;;;;;12.56;70.62;100358.50;4932748;28;97401;-86
2022/11/10 02:09:29;;;;;;;23.80;17.45;;;;;;;12.63;70.78;100368.72;4923459;28;97260;-86
2022/11/10 02:12:13;;;;;;;23.30;16.25;;;;;;;12.60;70.63;100368.84;4933826;28;97418;-85
2022/11/10 02:14:57;;;;;;;24.40;18.23;;;;;;;12.63;70.49;100360.81;4935664;28;96957;-85
2022/11/10 02:17:41;;;;;;;24.40;17.33;;;;;;;12.61;70.30;100359.16;4913622;28;97316;-85
2022/11/10 02:20:25;;;;;;;22.77;16.95;;;;;;;12.61;70.53;100367.91;4925503;28;97994;-85
2022/11/10 02:23:12;;;;;;;21.90;17.23;;;;;;;12.59;70.49;100375.00;4932643;28;97182;-85
2022/11/10 02:25:57;;;;;;;23.45;16.55;;;;;;;12.60;70.76;100378.53;4933477;28;96954;-86
2022/11/10 02:28:40;;;;;;;22.52;17.20;;;;;;;12.58;70.57;100377.72;4930991;28;97109;-86
2022/11/10 02:31:24;;;;;;;24.52;18.02;;;;;;;12.49;71.02;100357.03;4935697;28;97428;-85
2022/11/10 02:34:09;;;;;;;23.63;17.38;;;;;;;12.57;71.07;100373.38;4941433;28;96945;-85
2022/11/10 02:36:53;;;;;;;23.33;17.30;;;;;;;12.59;71.20;100379.44;4921492;28;96928;-86
2022/11/10 02:39:37;;;;;;;22.27;16.88;;;;;;;12.55;71.20;100378.69;4937081;28;98560;-85
2022/11/10 02:42:21;;;;;;;21.65;15.50;;;;;;;12.59;71.31;100382.06;4943707;28;97748;-86
2022/11/10 02:45:07;;;;;;;23.73;17.40;;;;;;;12.58;71.31;100383.84;4931104;28;98136;-85
2022/11/10 02:47:51;;;;;;;22.92;17.45;;;;;;;12.58;71.29;100386.47;4930354;28;96718;-85
2022/11/10 02:50:35;;;;;;;31.02;16.77;;;;;;;12.57;71.47;100381.28;4916614;28;97284;-85
2022/11/10 02:53:19;;;;;;;23.70;17.20;;;;;;;12.56;71.52;100392.72;4927349;28;97577;-85
2022/11/10 02:56:04;;;;;;;22.42;17.10;;;;;;;12.55;71.75;100396.28;4917181;28;97214;-85
2022/11/10 02:58:47;;;;;;;23.08;16.75;;;;;;;12.54;71.46;100395.44;4931092;28;96622;-85
2022/11/10 03:01:31;;;;;;;22.92;16.73;;;;;;;12.54;71.68;100397.22;4918567;28;97416;-85
2022/11/10 03:04:15;;;;;;;21.58;16.38;;;;;;;12.51;71.22;100400.81;4929850;28;97147;-85
2022/11/10 03:06:59;;;;;;;23.02;17.85;;;;;;;12.53;71.63;100417.41;4916833;28;98630;-85
2022/11/10 03:09:43;;;;;;;23.38;17.33;;;;;;;12.48;72.03;100407.97;4921876;28;97908;-85
2022/11/10 03:12:27;;;;;;;24.00;17.13;;;;;;;12.52;71.81;100426.22;4908643;28;97625;-86
2022/11/10 03:15:11;;;;;;;21.60;16.98;;;;;;;12.52;71.25;100422.75;4943775;28;97122;-85
2022/11/10 03:17:56;;;;;;;22.98;17.13;;;;;;;12.50;71.82;100420.16;4913920;28;98192;-85
2022/11/10 03:20:40;;;;;;;19.90;15.73;;;;;;;12.50;71.28;100427.19;4918203;28;97154;-85
2022/11/10 03:23:24;;;;;;;23.90;16.45;;;;;;;12.50;71.83;100433.31;4908830;28;97811;-85
2022/11/10 03:26:08;;;;;;;21.25;15.55;;;;;;;12.49;71.61;100431.63;4920931;28;96999;-85
2022/11/10 03:28:51;;;;;;;20.33;15.73;;;;;;;12.48;71.59;100443.06;4938335;28;97288;-85
2022/11/10 03:31:36;;;;;;;20.00;15.50;;;;;;;12.49;71.36;100450.06;4912713;28;96800;-85
2022/11/10 03:34:19;;;;;;;21.40;15.45;;;;;;;12.49;71.15;100455.31;4933749;28;97158;-85
2022/11/10 03:37:04;;;;;;;21.85;15.48;;;;;;;12.42;71.46;100440.66;4957754;28;97098;-85
2022/11/10 03:39:47;;;;;;;17.90;14.60;;;;;;;12.53;71.06;100458.66;4932813;28;97267;-85
2022/11/10 03:42:32;;;;;;;18.33;14.18;;;;;;;12.52;71.04;100460.44;4918668;28;97232;-86
2022/11/10 03:45:16;;;;;;;20.23;15.13;;;;;;;12.52;71.22;100452.56;4915717;28;97472;-85
2022/11/10 03:47:59;;;;;;;21.30;15.30;;;;;;;12.50;71.53;100456.16;4932096;28;97149;-85
2022/11/10 03:50:43;;;;;;;17.70;13.98;;;;;;;12.52;71.26;100471.00;4925404;28;96929;-85
2022/11/10 03:53:27;;;;;;;20.35;15.32;;;;;;;12.43;71.62;100452.94;4916104;28;96906;-85
2022/11/10 03:56:12;;;;;;;19.40;14.00;;;;;;;12.42;71.74;100452.06;4905142;28;97221;-85
2022/11/10 03:58:56;;;;;;;21.38;15.35;;;;;;;12.44;71.46;100460.75;4910737;28;97317;-86
2022/11/10 04:01:40;;;;;;;19.42;14.98;;;;;;;12.46;71.59;100463.34;4923300;28;97357;-85
2022/11/10 04:10:29;;;;;;;21.23;14.75;;;;;;;12.46;71.34;100466.81;4931716;28;97231;-85
2022/11/10 04:16:16;;;;;;;17.85;13.73;;;;;;;12.45;71.17;100461.63;4927176;28;96815;-85
2022/11/10 04:19:00;;;;;;;18.30;13.75;;;;;;;12.46;71.27;100458.91;4920544;28;97765;-85
2022/11/10 04:21:44;;;;;;;19.02;14.32;;;;;;;12.45;71.04;100467.75;4933200;28;97765;-85
2022/11/10 04:24:28;;;;;;;18.23;13.35;;;;;;;12.45;71.22;100466.91;4921661;28;97560;-85
2022/11/10 04:27:12;;;;;;;18.35;13.85;;;;;;;12.40;71.20;100453.91;4915892;28;96726;-85
2022/11/10 04:29:56;;;;;;;16.15;12.85;;;;;;;12.45;71.23;100470.38;4920040;28;97160;-85
2022/11/10 04:32:40;;;;;;;18.63;13.45;;;;;;;12.46;70.95;100476.50;4933103;28;97106;-85
2022/11/10 04:35:24;;;;;;;17.48;12.77;;;;;;;12.43;71.25;100472.22;4951005;28;96775;-85
2022/11/10 04:38:07;;;;;;;17.50;12.82;;;;;;;12.47;71.18;100491.38;4908107;28;97889;-85
2022/11/10 04:40:52;;;;;;;20.05;12.52;;;;;;;12.37;70.84;100476.88;4922876;28;97227;-84
2022/11/10 04:43:36;;;;;;;17.73;12.10;;;;;;;12.47;71.19;100491.38;4913989;28;98155;-85
2022/11/10 04:46:25;;;;;;;18.95;13.27;;;;;;;12.49;70.80;100504.50;4915179;28;97394;-85
2022/11/10 04:49:10;;;;;;;18.55;12.63;;;;;;;12.46;70.77;100495.78;4933289;28;96935;-84
2022/11/10 04:51:53;;;;;;;21.80;13.30;;;;;;;12.44;70.87;100504.66;4917086;28;97454;-85
2022/11/10 04:54:38;;;;;;;17.05;12.60;;;;;;;12.42;70.89;100510.00;4930180;28;97407;-85
2022/11/10 04:57:22;;;;;;;16.23;12.82;;;;;;;12.43;70.93;100516.09;4921651;28;97283;-85
2022/11/10 05:00:06;;;;;;;16.42;13.02;;;;;;;12.45;71.32;100515.13;4950492;28;97031;-84
2022/11/10 05:02:50;;;;;;;19.50;12.88;;;;;;;12.39;70.99;100522.38;4933938;28;97825;-85
2022/11/10 05:05:34;;;;;;;16.73;12.32;;;;;;;12.42;70.95;100514.38;4914674;28;97060;-86
2022/11/10 05:08:18;;;;;;;15.63;10.60;;;;;;;12.24;70.55;100482.56;4905688;28;97305;-84
2022/11/10 05:11:02;;;;;;;14.05;10.80;;;;;;;12.44;70.36;100525.72;4898287;28;96899;-85
2022/11/10 05:13:46;;;;;;;14.88;10.48;;;;;;;12.42;70.47;100525.78;4909113;28;97136;-85
2022/11/10 05:16:30;;;;;;;13.82;11.10;;;;;;;12.42;70.51;100528.41;4907251;28;97696;-85
2022/11/10 05:19:14;;;;;;;15.82;10.77;;;;;;;12.44;69.91;100533.59;4897694;28;96859;-85
2022/11/10 05:21:58;;;;;;;14.50;11.02;;;;;;;12.40;70.32;100529.41;4908856;28;96805;-84
2022/11/10 05:24:42;;;;;;;16.38;10.80;;;;;;;12.42;69.90;100535.44;4906195;28;97159;-85
2022/11/10 05:27:26;;;;;;;19.23;10.60;;;;;;;12.42;69.90;100540.69;4917135;28;97179;-84
2022/11/10 05:30:10;;;;;;;14.98;10.52;;;;;;;12.43;69.78;100545.06;4912721;28;97344;-85
2022/11/10 05:32:55;;;;;;;17.88;11.30;;;;;;;12.39;69.84;100544.34;4920769;28;96809;-86
2022/11/10 05:35:39;;;;;;;14.45;9.68;;;;;;;12.42;69.51;100553.88;4925148;28;97388;-85
2022/11/10 05:38:23;;;;;;;15.50;9.98;;;;;;;12.37;69.78;100556.69;4906375;28;97053;-84
2022/11/10 05:41:07;;;;;;;19.27;11.77;;;;;;;12.40;69.46;100559.19;4912522;28;96923;-84
2022/11/10 05:43:51;;;;;;;20.27;11.70;;;;;;;12.37;69.57;100561.97;4893328;28;98626;-85
2022/11/10 05:46:35;;;;;;;21.20;12.48;;;;;;;12.38;69.59;100563.66;4905996;28;97757;-86
2022/11/10 05:49:19;;;;;;;15.85;11.30;;;;;;;12.38;69.54;100575.97;4914317;28;96905;-86
2022/11/10 05:52:03;;;;;;;18.20;10.80;;;;;;;12.40;69.34;100580.25;4897955;28;98024;-85
2022/11/10 05:54:47;;;;;;;16.13;10.35;;;;;;;12.36;69.47;100586.56;4930339;28;96968;-85
2022/11/10 05:57:32;;;;;;;16.58;9.88;;;;;;;12.39;69.48;100588.22;4918874;28;97504;-85
2022/11/10 06:00:20;;;;;;;20.33;9.90;;;;;;;12.32;69.23;100579.69;4905410;28;97634;-86
2022/11/10 06:03:16;;;;;;;15.63;10.30;;;;;;;12.40;69.18;100597.84;4900709;28;97595;-86
2022/11/10 06:06:00;;;;;;;14.32;9.95;;;;;;;12.40;69.44;100603.09;4889264;28;96737;-86
2022/11/10 06:08:43;;;;;;;15.88;10.02;;;;;;;12.40;69.49;100617.13;4940533;28;97157;-88
2022/11/10 06:11:27;;;;;;;15.23;11.38;;;;;;;12.35;69.15;100612.94;4928773;28;97167;-84
2022/11/10 06:14:11;;;;;;;17.38;9.93;;;;;;;12.37;69.01;100621.66;4935783;28;98135;-82
2022/11/10 06:16:55;;;;;;;15.40;9.75;;;;;;;12.34;69.06;100627.88;4919164;28;97547;-84
2022/11/10 06:19:39;;;;;;;14.35;9.27;;;;;;;12.35;69.04;100637.47;4922029;28;97641;-84
2022/11/10 06:22:24;;;;;;;14.30;9.10;;;;;;;12.15;69.16;100616.28;4914257;28;97582;-84
2022/11/10 06:25:09;;;;;;;14.90;9.15;;;;;;;12.34;68.85;100648.94;4937656;28;96877;-90
2022/11/10 06:27:53;;;;;;;12.05;8.32;;;;;;;12.18;69.66;100635.44;4932822;28;96840;-84
2022/11/10 06:30:38;;;;;;;16.20;9.52;;;;;;;12.30;69.17;100665.75;4919044;28;97169;-86
2022/11/10 06:33:22;;;;;;;14.57;9.63;;;;;;;12.30;69.10;100671.00;4930703;28;97032;-84
2022/11/10 06:36:06;;;;;;;17.88;11.27;;;;;;;12.34;69.00;100679.69;4905762;28;97302;-83
2022/11/10 06:38:50;;;;;;;26.80;14.35;;;;;;;12.32;68.98;100673.59;4929855;28;97334;-82
2022/11/10 06:41:34;;;;;;;22.95;13.30;;;;;;;12.28;68.88;100680.75;4935243;28;96889;-84
2022/11/10 06:44:18;;;;;;;26.83;13.98;;;;;;;12.29;69.17;100692.13;4944227;28;97797;-90
2022/11/10 06:47:02;;;;;;;22.33;13.10;;;;;;;12.30;68.70;100688.56;4920905;28;96935;-91
2022/11/10 06:49:46;;;;;;;13.73;8.55;;;;;;;12.36;68.95;100699.78;4947962;28;96722;-92
2022/11/10 06:52:30;;;;;;;11.70;8.15;;;;;;;12.31;69.08;100701.69;4935648;28;97729;-91
2022/11/10 06:55:14;;;;;;;12.95;8.18;;;;;;;12.33;69.11;100699.84;4949944;28;97366;-90
2022/11/10 06:57:58;;;;;;;12.75;8.65;;;;;;;12.35;68.80;100713.81;4949386;28;96743;-92
2022/11/10 07:00:42;;;;;;;14.52;7.50;;;;;;;12.34;68.57;100711.25;4925123;28;96831;-89
2022/11/10 07:03:27;;;;;;;14.27;8.25;;;;;;;12.28;68.66;100708.84;4952887;28;97167;-90
2022/11/10 07:06:11;;;;;;;13.15;7.15;;;;;;;12.37;69.01;100725.16;4940621;28;96802;-92
2022/11/10 07:08:55;;;;;;;14.10;6.95;;;;;;;12.38;68.59;100729.50;4918695;28;97487;-91
2022/11/10 07:11:39;;;;;;;19.45;7.95;;;;;;;12.37;68.62;100727.81;4935562;28;96814;-93
2022/11/10 07:14:23;;;;;;;11.90;6.43;;;;;;;12.44;68.58;100739.81;4933541;28;98458;-87
2022/11/10 07:17:07;;;;;;;17.33;8.18;;;;;;;12.44;68.77;100739.81;4925286;28;97182;-92
2022/11/10 07:19:51;;;;;;;17.88;8.20;;;;;;;12.48;69.13;100745.88;4934927;28;96699;-90
2022/11/10 07:22:35;;;;;;;19.73;9.35;;;;;;;12.45;68.77;100743.34;4938540;28;97175;-91
2022/11/10 07:25:19;;;;;;;28.58;13.48;;;;;;;12.54;68.70;100758.81;4919120;28;97204;-90
2022/11/10 07:28:04;;;;;;;24.23;11.18;;;;;;;12.53;68.37;100764.13;4924720;28;97477;-92
2022/11/10 07:30:48;;;;;;;18.88;9.48;;;;;;;12.53;69.06;100769.38;4937895;28;97318;-91
2022/11/10 07:33:33;;;;;;;13.27;7.78;;;;;;;12.52;68.27;100770.31;4933185;28;97498;-90
2022/11/10 07:36:16;;;;;;;15.10;7.20;;;;;;;12.55;69.11;100786.00;4927839;28;97415;-91
2022/11/10 07:39:00;;;;;;;10.27;6.15;;;;;;;12.56;68.61;100790.34;4934437;28;97268;-91
2022/11/10 07:41:44;;;;;;;13.75;6.72;;;;;;;12.57;68.57;100782.41;4932025;28;96739;-88
2022/11/10 07:44:28;;;;;;;13.48;7.20;;;;;;;12.58;67.94;100793.78;4933980;28;97424;-90
2022/11/10 07:47:12;;;;;;;13.38;7.68;;;;;;;12.57;68.24;100786.81;4938616;28;97219;-91
2022/11/10 07:49:56;;;;;;;11.38;6.68;;;;;;;12.53;68.70;100788.66;4932819;28;100005;-90
2022/11/10 07:52:40;;;;;;;13.10;7.10;;;;;;;12.58;68.38;100801.69;4957590;28;97150;-89
2022/11/10 07:55:24;;;;;;;11.43;6.63;;;;;;;12.54;68.29;100800.94;4916240;28;96923;-89
2022/11/10 07:58:08;;;;;;;8.75;6.47;;;;;;;12.54;68.53;100818.53;4929451;28;97166;-89
2022/11/10 08:00:53;;;;;;;11.88;5.72;;;;;;;12.37;68.12;100785.72;4911328;28;97127;-90
2022/11/10 08:03:37;;;;;;;9.27;6.05;;;;;;;12.51;68.70;100816.84;4921003;28;96765;-91
2022/11/10 08:06:21;;;;;;;13.00;6.13;;;;;;;12.51;68.13;100814.22;4948582;28;97396;-88
2022/11/10 08:09:05;;;;;;;10.73;6.03;;;;;;;12.51;68.23;100823.88;4916000;28;97231;-90
2022/11/10 08:11:49;;;;;;;10.23;6.28;;;;;;;12.49;67.94;100821.31;4935039;28;97139;-89
2022/11/10 08:14:32;;;;;;;10.95;6.03;;;;;;;12.50;68.13;100823.00;4907810;28;98106;-90
2022/11/10 08:17:17;;;;;;;12.15;6.53;;;;;;;12.53;67.97;100830.81;4932023;28;98370;-90
2022/11/10 08:20:00;;;;;;;10.15;6.05;;;;;;;12.56;67.96;100819.31;4934773;28;97704;-89
2022/11/10 08:22:45;;;;;;;13.85;6.57;;;;;;;12.63;68.14;100819.06;4919888;28;97057;-89
2022/11/10 08:25:29;;;;;;;9.23;6.88;;;;;;;12.77;67.51;100839.66;4916890;28;97388;-91
2022/11/10 08:28:16;;;;;;;18.23;8.30;;;;;;;12.88;68.01;100845.38;4948014;28;97865;-91
2022/11/10 08:31:01;;;;;;;13.73;7.38;;;;;;;12.94;67.55;100840.81;4934982;28;97753;-91
2022/11/10 08:33:45;;;;;;;10.48;6.18;;;;;;;13.02;67.40;100852.81;4928695;28;97003;-92
2022/11/10 08:36:29;;;;;;;9.52;5.25;;;;;;;13.07;67.44;100852.66;4953563;28;96814;-91
2022/11/10 08:39:13;;;;;;;11.85;5.47;;;;;;;13.08;67.27;100857.84;4919725;28;96796;-91
2022/11/10 08:41:57;;;;;;;8.40;5.25;;;;;;;13.18;67.29;100865.44;4920716;28;97153;-92
2022/11/10 08:44:41;;;;;;;8.00;4.40;;;;;;;13.28;67.74;100870.34;4916948;28;97177;-92
2022/11/10 08:47:25;;;;;;;9.18;4.03;;;;;;;13.34;67.05;100867.50;4938520;28;96879;-92
2022/11/10 08:50:09;;;;;;;9.88;3.85;;;;;;;13.41;67.39;100876.06;4945536;28;97729;-90
2022/11/10 08:52:54;;;;;;;8.23;3.58;;;;;;;13.41;67.22;100867.25;4933451;28;97186;-89
2022/11/10 08:55:39;;;;;;;8.18;3.97;;;;;;;13.46;66.93;100873.22;4939417;28;97091;-92
2022/11/10 08:58:23;;;;;;;6.43;3.10;;;;;;;13.61;66.77;100895.53;4922456;28;97355;-92
2022/11/10 09:01:08;;;;;;;5.95;3.25;;;;;;;13.64;66.94;100880.44;4945448;28;97078;-93
2022/11/10 09:03:52;;;;;;;10.73;3.72;;;;;;;13.91;66.29;100902.28;4936301;28;97348;-90
2022/11/10 09:06:36;;;;;;;13.30;4.65;;;;;;;14.06;65.95;100902.63;4943396;28;97151;-91
2022/11/10 09:09:20;;;;;;;6.13;3.72;;;;;;;14.39;65.77;100913.59;4932345;28;97450;-90
2022/11/10 09:12:04;;;;;;;10.02;3.95;;;;;;;14.71;65.20;100913.16;4936365;28;96835;-89
2022/11/10 09:14:48;;;;;;;5.68;3.35;;;;;;;14.88;64.83;100919.53;4935248;28;97192;-90
2022/11/10 09:17:32;;;;;;;8.95;3.28;;;;;;;15.15;64.35;100918.38;4912734;28;97680;-91
2022/11/10 09:20:16;;;;;;;7.63;2.97;;;;;;;15.23;63.36;100912.72;4935749;28;97206;-91
2022/11/10 09:23:08;;;;;;;10.95;3.08;;;;;;;15.26;62.99;100911.75;4932708;28;97293;-91
2022/11/10 09:25:54;;;;;;;7.22;2.60;;;;;;;15.42;62.67;100922.47;4914673;28;97043;-90
2022/11/10 09:28:38;;;;;;;6.55;2.72;;;;;;;15.79;61.58;100924.34;4918619;28;97417;-91
2022/11/10 09:31:22;;;;;;;5.63;2.67;;;;;;;16.18;60.79;100932.22;4932715;28;96695;-91
2022/11/10 09:34:06;;;;;;;5.78;2.90;;;;;;;16.29;60.37;100932.59;4919653;28;96870;-91
2022/11/10 09:36:50;;;;;;;7.35;2.72;;;;;;;16.28;59.88;100941.44;4921271;28;97699;-91
2022/11/10 09:39:34;;;;;;;8.80;2.92;;;;;;;16.51;60.08;100939.47;4930730;28;96889;-89
2022/11/10 09:42:36;;;;;;;9.32;3.00;;;;;;;16.79;58.24;100939.00;4915044;28;97373;-91
2022/11/10 09:45:27;;;;;;;;;;;;;;;16.86;58.09;100937.75;4930997;28;96836;-91
2022/11/10 09:48:11;;;;;;;;;;;;;;;17.03;57.53;100936.91;4934739;28;97309;-91
2022/11/10 09:51:06;;;;;;;7.00;2.70;;;;;;;17.16;57.12;100943.31;4935380;28;97245;-91
2022/11/10 09:53:58;;;;;;;8.13;3.08;;;;;;;17.29;56.94;100948.81;4932468;28;97102;-91
2022/11/10 09:56:42;;;;;;;7.60;2.75;;;;;;;17.34;56.95;100946.78;4920395;28;96902;-91
2022/11/10 09:59:28;;;;;;;6.95;2.55;;;;;;;17.40;56.91;100942.97;4937481;28;97160;-91
2022/11/10 10:02:17;;;;;;;7.80;2.60;;;;;;;17.44;56.23;100949.81;4922999;28;97115;-89
2022/11/10 10:05:20;;;;;;;5.93;2.33;;;;;;;17.43;55.79;100956.06;4935125;28;96972;-88
2022/11/10 10:08:17;;;;;;;5.85;2.40;;;;;;;17.48;56.13;100946.03;4938347;28;96867;-92
2022/11/10 10:11:08;;;;;;;6.88;1.80;;;;;;;17.51;55.22;100968.91;4931730;28;97153;-91
2022/11/10 10:14:12;;;;;;;3.75;1.88;;;;;;;17.51;55.44;100966.25;4937446;28;97078;-90
2022/11/10 10:17:07;;;;;;;7.63;2.40;;;;;;;17.43;55.25;100967.53;4942082;28;97031;-92
2022/11/10 10:20:04;;;;;;;9.15;2.35;;;;;;;17.41;55.35;100961.44;4912345;28;96750;-91
2022/11/10 10:23:13;;;;;;;7.65;1.85;;;;;;;17.45;55.11;100966.59;4948929;28;98640;-92
2022/11/10 10:25:57;;;;;;;8.05;2.30;;;;;;;17.36;55.06;100967.94;4947409;28;96630;-92
2022/11/10 10:28:44;;;;;;;5.80;2.05;;;;;;;17.36;55.19;100960.81;4924880;28;96823;-92
2022/11/10 10:31:42;;;;;;;5.15;2.40;;;;;;;17.30;54.83;100960.28;4931520;28;97258;-93
2022/11/10 10:34:30;;;;;;;8.80;2.28;;;;;;;17.29;54.74;100963.91;4916070;28;97247;-94
2022/11/10 10:37:26;;;;;;;8.18;2.53;;;;;;;17.10;55.12;100951.56;4929858;28;96949;-92
2022/11/10 10:40:18;;;;;;;14.95;2.63;;;;;;;17.09;55.24;100946.34;4921524;28;96758;-92
2022/11/10 10:43:03;;;;;;;8.13;2.42;;;;;;;17.13;54.85;100971.75;4924902;28;96851;-91
2022/11/10 10:46:03;;;;;;;9.63;2.72;;;;;;;17.09;55.02;100970.22;4928550;28;97317;-92
2022/11/10 10:49:05;;;;;;;6.65;2.25;;;;;;;17.00;55.03;100968.88;4932526;28;97556;-91
2022/11/10 10:51:50;;;;;;;7.63;2.25;;;;;;;17.01;55.59;100961.78;4917817;28;97035;-90
2022/11/10 10:54:35;;;;;;;6.35;2.70;;;;;;;16.93;55.44;100973.66;4916768;28;97437;-92
2022/11/10 10:57:30;;;;;;;4.97;2.10;;;;;;;16.89;55.90;100965.91;4932416;28;97193;-90
2022/11/10 11:00:21;;;;;;;8.45;2.47;;;;;;;16.88;56.05;100974.81;4932799;28;97098;-92
2022/11/10 11:03:31;;;;;;;9.23;2.33;;;;;;;16.81;55.77;100971.59;4918910;28;97035;-89
2022/11/10 11:06:15;;;;;;;15.45;2.83;;;;;;;16.89;56.09;100976.53;4943391;28;97440;-92
2022/11/10 11:09:08;;;;;;;6.88;2.40;;;;;;;16.87;55.88;100975.72;4932813;28;97136;-92
2022/11/10 11:12:02;;;;;;;5.80;2.10;;;;;;;16.76;56.08;100970.97;4916162;28;96876;-91
2022/11/10 11:14:46;;;;;;;6.32;2.17;;;;;;;16.75;55.77;100978.06;4916898;28;96835;-90
2022/11/10 11:17:30;;;;;;;11.18;2.92;;;;;;;16.74;55.57;100994.00;4914958;28;97300;-91
2022/11/10 11:20:14;;;;;;;8.07;2.95;;;;;;;16.57;55.54;100988.69;4920406;28;97189;-92
2022/11/10 11:23:10;;;;;;;8.20;2.15;;;;;;;16.53;55.99;100998.56;4922313;28;97095;-91
2022/11/10 11:26:01;;;;;;;12.25;3.55;;;;;;;16.42;56.18;100999.06;4932220;28;96831;-91
2022/11/10 11:29:23;;;;;;;7.75;2.42;;;;;;;16.30;56.43;100992.56;4920001;28;97309;-91
2022/11/10 11:32:37;;;;;;;9.40;2.78;;;;;;;16.23;56.11;100995.56;4945306;28;97646;-92
2022/11/10 11:35:35;;;;;;;17.40;3.00;;;;;;;16.21;56.33;101000.94;4938490;28;97219;-92
2022/11/10 11:38:30;;;;;;;14.57;3.15;;;;;;;16.14;56.09;101003.94;4934717;28;97249;-92
2022/11/10 11:41:23;;;;;;;11.65;2.85;;;;;;;16.14;56.08;101001.31;4928821;28;97091;-92
2022/11/10 11:44:07;;;;;;;15.63;3.17;;;;;;;16.13;56.19;101004.88;4941730;28;97222;-92
2022/11/10 11:47:29;;;;;;;9.95;3.20;;;;;;;16.04;56.61;101009.66;4934392;28;97108;-90
2022/11/10 11:50:32;;;;;;;6.30;2.55;;;;;;;15.93;56.22;101000.50;4927047;28;97022;-92
2022/11/10 11:53:22;;;;;;;6.82;2.38;;;;;;;15.89;56.66;101006.88;4919789;28;96728;-91
2022/11/10 11:56:21;;;;;;;6.97;2.05;;;;;;;15.70;56.74;100994.44;4954789;28;97144;-85
2022/11/10 11:59:08;;;;;;;8.30;2.30;;;;;;;15.78;57.06;101010.84;4937210;28;97189;-90
2022/11/10 12:02:10;;;;;;;9.38;2.30;;;;;;;15.73;57.15;101007.53;4957908;28;97981;-92
2022/11/10 12:05:30;;;;;;;7.60;2.28;;;;;;;15.65;56.98;101014.06;4951390;28;96849;-87
2022/11/10 12:08:25;;;;;;;7.70;2.20;;;;;;;15.65;57.36;101014.06;4859693;28;97204;-87
2022/11/10 12:11:20;;;;;;;8.57;2.20;;;;;;;15.54;57.45;100998.69;4953641;28;96802;-86
2022/11/10 12:14:28;;;;;;;7.22;2.03;;;;;;;15.59;57.52;101015.19;4928023;28;96936;-87
2022/11/10 12:17:18;;;;;;;10.05;3.53;;;;;;;15.62;57.96;101021.25;4926678;28;97063;-85
2022/11/10 12:20:13;;;;;;;8.75;2.85;;;;;;;15.60;58.17;101016.94;4926362;28;97437;-87
2022/11/10 12:23:07;;;;;;;10.40;3.20;;;;;;;15.65;58.76;101019.38;4934257;28;97604;-86
2022/11/10 12:26:07;;;;;;;10.18;3.33;;;;;;;15.66;58.56;101018.47;4936355;28;97332;-87
2022/11/10 12:29:02;;;;;;;10.52;2.80;;;;;;;15.65;58.56;101022.00;4918913;28;96878;-87
2022/11/10 12:31:46;;;;;;;6.45;2.17;;;;;;;15.64;58.53;101029.09;4945903;28;97266;-87
2022/11/10 12:34:42;;;;;;;6.05;3.03;;;;;;;15.64;58.26;101034.38;4931682;28;97965;-85
2022/11/10 12:37:32;;;;;;;6.28;2.35;;;;;;;15.63;58.14;101036.19;4923505;28;97357;-87
2022/11/10 12:40:20;;;;;;;5.45;2.00;;;;;;;15.66;57.89;101035.19;4933585;28;97111;-86
2022/11/10 12:43:26;;;;;;;13.30;2.63;;;;;;;15.67;58.17;101031.59;4911104;28;97771;-85
2022/11/10 12:46:11;;;;;;;7.55;2.13;;;;;;;15.67;57.97;101049.28;4929953;28;97585;-88
2022/11/10 12:49:04;;;;;;;8.93;2.17;;;;;;;15.66;57.82;101043.13;4943266;28;97864;-85
2022/11/10 12:51:52;;;;;;;10.52;2.65;;;;;;;15.65;57.32;101053.78;4935165;28;97559;-87
2022/11/10 12:54:36;;;;;;;7.55;2.22;;;;;;;15.60;57.93;101054.84;4922968;28;97155;-89
2022/11/10 12:57:25;;;;;;;5.93;1.75;;;;;;;15.56;57.65;101058.56;4912035;28;98022;-86
2022/11/10 13:00:25;;;;;;;9.13;2.22;;;;;;;15.52;58.01;101061.38;4918644;28;96926;-84